Route Details

Aircraft Information
Group: North America Fleet
Types: B738, B752, B762, B763
Route Data
Distance: 171nm
Duration: 1h 05m
Origin METAR: KONT 080053Z 29006KT 10SM FEW250 18/M02 A3019 RMK AO2 SLP217 T01781017
Dest. METAR: KLAS 080056Z 10005KT 10SM FEW200 FEW250 13/M07 A3027 RMK AO2 SLP250 T01331067
Freight Data
(for Feb 8, 2023)
Load Factor:
81%
Manifested Cargo: 84,266lbs
Financial History
Total Freight: 236,564lbs
Average Load: 0lbs/flt
Fuel Used: 24,991lbs
Avg. Fuel Used: 0lbs/flt
Fuel Expense: $14,651
Avg. Fuel Expense: $0
Avg. Fuel Cost: $0/lbs
Total Gross Income: $581,947
Pilot Pay: $1,264
Total Expenses: $131,927
Total Revenue: $434,035
Average Revenue: $0

Capitol Logistics 485




KONT
Ontario International Airport
Ontario, California
KLAS
Harry Reid International Airport
Las Vegas, Nevada

Activity Log

Date Flight Route Aircraft Duration
11/24/2022 CPX485 SNSHN5 MISEN RNDRZ2 B752 0h 51m
07/20/2022 CPX485 SNSHN5 MISEN RNDRZ2 B738 1h 05m
07/18/2022 CPX485 SNSHN5 MISEN RNDRZ2 B738 0h 53m
07/15/2022 CPX485 SNSHN5 MISEN RNDRZ1 B763 0h 46m
07/14/2022 CPX485 SNSHN5 MISEN RNDRZ1 B763 0h 48m
07/11/2022 CPX485 SNSHN5 MISEN RNDRZ1 B738 0h 35m